Time;durP1;ratioP1;P1;durP2;ratioP2;P2;SDS_P1;SDS_P2;PMS_P1;PMS_P2;Temp;Humidity;BMP_temperature;BMP_pressure;BME280_temperature;BME280_humidity;BME280_pressure;Samples;Min_cycle;Max_cycle;Signal;HPM_P1;HPM_P2
2023/04/04 00:00:35;;;;;;;6.13;2.03;;;2.00;99.90;;;;;;4971839;28;20263;-76
2023/04/04 00:03:01;;;;;;;5.87;1.87;;;2.00;99.90;;;;;;4969994;28;20217;-77
2023/04/04 00:05:27;;;;;;;3.90;2.00;;;2.00;99.90;;;;;;4972063;28;20214;-77
2023/04/04 00:07:53;;;;;;;4.27;2.17;;;2.00;99.90;;;;;;4990724;28;20197;-75
2023/04/04 00:10:19;;;;;;;6.93;2.30;;;2.00;99.90;;;;;;4980679;28;20201;-77
2023/04/04 00:12:45;;;;;;;6.00;1.90;;;2.00;99.90;;;;;;4975399;28;20209;-78
2023/04/04 00:15:11;;;;;;;8.63;2.20;;;2.10;99.90;;;;;;4981248;28;20210;-75
2023/04/04 00:17:37;;;;;;;5.00;2.23;;;1.90;99.90;;;;;;4981610;28;20239;-77
2023/04/04 00:20:03;;;;;;;3.97;1.90;;;2.00;99.90;;;;;;4974475;28;20258;-77
2023/04/04 00:22:28;;;;;;;4.53;1.80;;;2.00;99.90;;;;;;4973790;28;20674;-77
2023/04/04 00:24:54;;;;;;;4.63;2.30;;;1.90;99.90;;;;;;4993605;28;20187;-77
2023/04/04 00:27:20;;;;;;;6.27;2.63;;;1.80;99.90;;;;;;4977368;28;20237;-76
2023/04/04 00:29:46;;;;;;;5.53;2.03;;;1.90;99.90;;;;;;4976381;28;20202;-77
2023/04/04 00:32:11;;;;;;;5.93;1.73;;;1.90;99.90;;;;;;4970367;28;20231;-77
2023/04/04 00:34:37;;;;;;;6.57;2.27;;;1.80;99.90;;;;;;4967100;28;20213;-78
2023/04/04 00:37:06;;;;;;;7.30;2.20;;;1.80;99.90;;;;;;4971429;28;20257;-77
2023/04/04 00:39:32;;;;;;;7.10;2.13;;;1.90;99.90;;;;;;4970388;28;20198;-77
2023/04/04 00:41:57;;;;;;;8.23;2.40;;;1.80;99.90;;;;;;4975345;28;20206;-77
2023/04/04 00:44:23;;;;;;;5.50;2.10;;;1.80;99.90;;;;;;4976095;28;20202;-77
2023/04/04 00:46:51;;;;;;;9.00;2.47;;;1.80;99.90;;;;;;4982108;28;20214;-77
2023/04/04 00:49:17;;;;;;;6.03;2.07;;;1.80;99.90;;;;;;4969795;28;20550;-75
2023/04/04 00:51:42;;;;;;;5.80;1.93;;;1.70;99.90;;;;;;4971800;28;20171;-76
2023/04/04 00:54:08;;;;;;;7.30;2.60;;;1.70;99.90;;;;;;4978559;28;20210;-77
2023/04/04 00:56:36;;;;;;;7.63;2.20;;;1.70;99.90;;;;;;4973225;28;20218;-77
2023/04/04 00:59:02;;;;;;;3.97;1.80;;;1.60;99.90;;;;;;4982166;28;20212;-76
2023/04/04 01:01:30;;;;;;;5.50;2.43;;;1.70;99.90;;;;;;4978304;28;20174;-77
2023/04/04 01:03:56;;;;;;;5.50;2.43;;;1.70;99.90;;;;;;4978022;28;20185;-77
2023/04/04 01:06:21;;;;;;;6.60;2.37;;;1.60;99.90;;;;;;4971907;28;20207;-77
2023/04/04 01:08:47;;;;;;;5.40;2.73;;;1.60;99.90;;;;;;4972938;28;20210;-76
2023/04/04 01:11:14;;;;;;;5.07;2.50;;;1.50;99.90;;;;;;4974529;28;20294;-77
2023/04/04 01:13:42;;;;;;;6.60;2.20;;;1.40;99.90;;;;;;4998786;28;20218;-76
2023/04/04 01:16:07;;;;;;;6.40;2.77;;;1.50;99.90;;;;;;4968022;28;20692;-77
2023/04/04 01:18:35;;;;;;;5.17;2.33;;;1.50;99.90;;;;;;4976740;28;20203;-76
2023/04/04 01:21:12;;;;;;;5.87;2.07;;;1.40;99.90;;;;;;4975464;28;20612;-76
2023/04/04 01:24:01;;;;;;;3.83;2.27;;;1.30;99.90;;;;;;4967653;28;20237;-77
2023/04/04 01:26:28;;;;;;;8.73;2.20;;;1.40;99.90;;;;;;4967133;28;20220;-77
2023/04/04 01:28:54;;;;;;;9.23;2.40;;;1.50;99.90;;;;;;4982588;28;20221;-76
2023/04/04 01:31:41;;;;;;;6.47;2.60;;;1.50;99.90;;;;;;4973074;28;20269;-78
2023/04/04 01:34:15;;;;;;;7.90;2.77;;;1.50;99.90;;;;;;4972463;28;20186;-78
2023/04/04 01:36:43;;;;;;;7.17;2.30;;;1.40;99.90;;;;;;4968165;28;20248;-77
2023/04/04 01:39:21;;;;;;;4.77;2.13;;;1.40;99.90;;;;;;4971843;28;20578;-78
2023/04/04 01:41:48;;;;;;;4.47;2.03;;;1.50;99.90;;;;;;4971182;28;20261;-77
2023/04/04 01:44:15;;;;;;;7.00;2.30;;;1.50;99.90;;;;;;4968226;28;20214;-77
2023/04/04 01:46:41;;;;;;;6.87;2.20;;;1.50;99.90;;;;;;4973652;28;20206;-77
2023/04/04 01:49:06;;;;;;;6.03;2.30;;;1.50;99.90;;;;;;4986831;28;20181;-78
2023/04/04 01:51:33;;;;;;;5.90;1.93;;;1.50;99.90;;;;;;4973551;28;20290;-78
2023/04/04 01:53:58;;;;;;;4.80;1.97;;;1.50;99.90;;;;;;4982304;28;20201;-77
2023/04/04 01:56:24;;;;;;;5.37;2.30;;;1.50;99.90;;;;;;4972878;28;20224;-77
2023/04/04 01:58:51;;;;;;;7.80;2.60;;;1.50;99.90;;;;;;4975839;28;20215;-77
2023/04/04 02:01:16;;;;;;;4.93;2.37;;;1.50;99.90;;;;;;4972141;28;20174;-78
2023/04/04 02:03:42;;;;;;;4.97;2.30;;;1.40;99.90;;;;;;4965080;28;20749;-76
2023/04/04 02:06:08;;;;;;;8.20;2.47;;;1.40;99.90;;;;;;4969626;28;20218;-75
2023/04/04 02:08:33;;;;;;;7.43;2.40;;;1.40;99.90;;;;;;4974222;28;20206;-75
2023/04/04 02:10:59;;;;;;;3.83;1.73;;;1.40;99.90;;;;;;4983519;28;20209;-75
2023/04/04 02:13:25;;;;;;;4.43;1.97;;;1.40;99.90;;;;;;4978148;28;20821;-76
2023/04/04 02:15:51;;;;;;;6.67;3.03;;;1.40;99.90;;;;;;4961477;28;20182;-75
2023/04/04 02:18:17;;;;;;;5.50;2.37;;;1.40;99.90;;;;;;4980917;28;20201;-75
2023/04/04 02:20:42;;;;;;;5.37;2.10;;;1.40;99.90;;;;;;4971896;28;20689;-76
2023/04/04 02:23:08;;;;;;;5.97;2.10;;;1.40;99.90;;;;;;4971703;28;20214;-75
2023/04/04 02:25:34;;;;;;;5.57;2.20;;;1.40;99.90;;;;;;4969024;28;20242;-75
2023/04/04 02:27:59;;;;;;;3.53;2.10;;;1.40;99.90;;;;;;4974875;28;20568;-75
2023/04/04 02:30:25;;;;;;;10.07;3.53;;;1.40;99.90;;;;;;4971162;28;20215;-76
2023/04/04 02:32:51;;;;;;;5.83;2.33;;;1.40;99.90;;;;;;4969577;28;20224;-76
2023/04/04 02:35:17;;;;;;;6.03;2.37;;;1.40;99.90;;;;;;4973120;28;20221;-76
2023/04/04 02:37:46;;;;;;;7.90;2.30;;;1.40;99.90;;;;;;4973740;28;20230;-76
2023/04/04 02:40:12;;;;;;;7.30;3.07;;;1.40;99.90;;;;;;4965443;28;20217;-77
2023/04/04 02:42:44;;;;;;;5.60;2.90;;;1.40;99.90;;;;;;4971392;28;20269;-77
2023/04/04 02:45:10;;;;;;;5.57;2.50;;;1.40;99.90;;;;;;4968739;28;20221;-77
2023/04/04 02:47:37;;;;;;;5.90;2.40;;;1.30;99.90;;;;;;4969005;28;20214;-76
2023/04/04 02:50:02;;;;;;;7.10;2.40;;;1.20;99.90;;;;;;4972878;28;20219;-77
2023/04/04 02:52:28;;;;;;;4.17;2.30;;;1.20;99.90;;;;;;4976566;28;20201;-76
2023/04/04 02:54:54;;;;;;;6.97;2.40;;;1.10;99.90;;;;;;4973417;28;20205;-74
2023/04/04 02:57:20;;;;;;;7.97;2.77;;;1.10;99.90;;;;;;4988191;28;20214;-76
2023/04/04 02:59:45;;;;;;;7.97;2.37;;;1.10;99.90;;;;;;4979595;28;20216;-77
2023/04/04 03:02:11;;;;;;;5.33;2.77;;;1.10;99.90;;;;;;4990326;28;20630;-77
2023/04/04 03:04:37;;;;;;;7.97;2.60;;;1.10;99.90;;;;;;4973572;28;20210;-77
2023/04/04 03:07:02;;;;;;;6.80;2.70;;;1.10;99.90;;;;;;4973188;28;20228;-76
2023/04/04 03:09:28;;;;;;;5.43;2.13;;;1.00;99.90;;;;;;4973908;28;20214;-77
2023/04/04 03:11:54;;;;;;;8.33;2.17;;;0.90;99.90;;;;;;4961065;28;20215;-75
2023/04/04 03:14:20;;;;;;;3.83;2.43;;;0.90;99.90;;;;;;4969694;28;20227;-76
2023/04/04 03:16:48;;;;;;;7.13;2.50;;;0.90;99.90;;;;;;4972843;28;20731;-76
2023/04/04 03:19:14;;;;;;;8.37;2.97;;;0.90;99.90;;;;;;4972262;28;20264;-77
2023/04/04 03:21:39;;;;;;;6.27;2.30;;;0.90;99.90;;;;;;4968204;28;20226;-75
2023/04/04 03:24:05;;;;;;;7.07;2.30;;;0.80;99.90;;;;;;4972468;28;20214;-76
2023/04/04 03:26:31;;;;;;;3.70;2.17;;;0.90;99.90;;;;;;4987972;28;20209;-77
2023/04/04 03:28:56;;;;;;;5.53;2.20;;;0.80;99.90;;;;;;4976028;28;20227;-77
2023/04/04 03:31:22;;;;;;;4.23;2.23;;;0.80;99.90;;;;;;4971872;28;20185;-77
2023/04/04 03:33:48;;;;;;;9.67;2.67;;;0.70;99.90;;;;;;4973129;28;20581;-77
2023/04/04 03:36:13;;;;;;;3.90;2.53;;;0.70;99.90;;;;;;4972836;28;20218;-77
2023/04/04 03:38:40;;;;;;;4.80;2.80;;;0.80;99.90;;;;;;4975136;28;20235;-77
2023/04/04 03:41:06;;;;;;;6.83;2.30;;;0.70;99.90;;;;;;4985612;28;20213;-77
2023/04/04 03:43:33;;;;;;;7.03;2.53;;;0.60;99.90;;;;;;4974525;28;20222;-76
2023/04/04 03:46:00;;;;;;;11.97;2.87;;;0.60;99.90;;;;;;4971604;28;20195;-76
2023/04/04 03:48:26;;;;;;;8.07;2.90;;;0.70;99.90;;;;;;4973170;28;20659;-76
2023/04/04 03:50:51;;;;;;;6.07;2.47;;;0.70;99.90;;;;;;4973174;28;20206;-77
2023/04/04 03:53:17;;;;;;;5.37;2.27;;;0.70;99.90;;;;;;4973096;28;20212;-77
2023/04/04 03:55:43;;;;;;;5.53;2.30;;;0.70;99.90;;;;;;4968579;28;20218;-76
2023/04/04 03:58:08;;;;;;;8.60;2.83;;;0.60;99.90;;;;;;4977935;28;20185;-76
2023/04/04 04:00:34;;;;;;;8.77;2.30;;;0.70;99.90;;;;;;4987848;28;20225;-77
2023/04/04 04:03:00;;;;;;;9.83;3.60;;;0.60;99.90;;;;;;4967974;28;20241;-77
2023/04/04 04:05:25;;;;;;;6.27;2.43;;;0.60;99.90;;;;;;4973248;28;20301;-76
2023/04/04 04:07:51;;;;;;;7.07;2.50;;;0.60;99.90;;;;;;4972909;28;20225;-77
2023/04/04 04:10:17;;;;;;;7.03;3.10;;;0.50;99.90;;;;;;4965420;28;20259;-77
2023/04/04 04:12:43;;;;;;;6.60;2.67;;;0.50;99.90;;;;;;4967453;28;20672;-76
2023/04/04 04:15:09;;;;;;;6.20;2.83;;;0.50;99.90;;;;;;4972755;28;20301;-76
2023/04/04 04:17:39;;;;;;;9.47;3.03;;;0.60;99.90;;;;;;4971383;28;20229;-77
2023/04/04 04:20:05;;;;;;;4.67;2.20;;;0.50;99.90;;;;;;4972551;28;20881;-77
2023/04/04 04:22:31;;;;;;;4.00;2.50;;;0.50;99.90;;;;;;4987886;28;20209;-77
2023/04/04 04:24:57;;;;;;;7.00;3.27;;;0.50;99.90;;;;;;4994329;28;20662;-76
2023/04/04 04:27:22;;;;;;;7.80;2.47;;;0.50;99.90;;;;;;4974391;28;20729;-76
2023/04/04 04:29:48;;;;;;;6.17;2.73;;;0.40;99.90;;;;;;4973268;28;20214;-76
2023/04/04 04:32:18;;;;;;;5.57;2.70;;;0.50;99.90;;;;;;4973196;28;20210;-76
2023/04/04 04:34:44;;;;;;;6.10;3.00;;;0.50;99.90;;;;;;4968506;28;20212;-77
2023/04/04 04:37:09;;;;;;;8.33;3.13;;;0.50;99.90;;;;;;4973026;28;20206;-76
2023/04/04 04:39:35;;;;;;;11.47;2.73;;;0.40;99.90;;;;;;4970673;28;20215;-77
2023/04/04 04:42:02;;;;;;;6.23;3.40;;;0.50;99.90;;;;;;4971548;28;20221;-76
2023/04/04 04:44:27;;;;;;;9.00;3.43;;;0.40;99.90;;;;;;4972805;28;20214;-76
2023/04/04 04:46:53;;;;;;;10.17;3.43;;;0.50;99.90;;;;;;4972434;28;20227;-75
2023/04/04 04:49:19;;;;;;;8.23;3.73;;;0.50;99.90;;;;;;4970015;28;20754;-76
2023/04/04 04:51:44;;;;;;;6.07;2.90;;;0.50;99.90;;;;;;4969494;28;20169;-76
2023/04/04 04:54:10;;;;;;;10.17;3.20;;;0.60;99.90;;;;;;4980353;28;20233;-76
2023/04/04 04:56:36;;;;;;;9.23;3.33;;;0.70;99.90;;;;;;4976682;28;20276;-77
2023/04/04 04:59:02;;;;;;;5.43;3.50;;;0.60;99.90;;;;;;4970489;28;20213;-76
2023/04/04 05:01:28;;;;;;;7.60;4.07;;;0.80;99.90;;;;;;4966992;28;20646;-77
2023/04/04 05:03:54;;;;;;;7.37;3.20;;;1.10;99.90;;;;;;4982868;28;20269;-74
2023/04/04 05:06:19;;;;;;;8.23;2.90;;;1.90;99.90;;;;;;4979300;28;20213;-77
2023/04/04 05:08:45;;;;;;;9.43;2.87;;;2.60;99.90;;;;;;4980218;28;20218;-77
2023/04/04 05:11:11;;;;;;;6.47;2.73;;;2.90;99.90;;;;;;4976493;28;20221;-76
2023/04/04 05:13:36;;;;;;;7.00;3.33;;;2.40;99.90;;;;;;4979381;28;20218;-77
2023/04/04 05:16:02;;;;;;;7.40;2.20;;;2.20;99.90;;;;;;4975639;28;20685;-75
2023/04/04 05:18:28;;;;;;;9.40;3.50;;;1.80;99.90;;;;;;4974049;28;20207;-77
2023/04/04 05:20:53;;;;;;;8.73;3.30;;;1.70;99.90;;;;;;4967475;28;20238;-73
2023/04/04 05:23:19;;;;;;;7.23;2.50;;;1.60;99.90;;;;;;4975184;28;20261;-76
2023/04/04 05:25:47;;;;;;;10.03;2.93;;;1.70;99.90;;;;;;4978318;28;20287;-76
2023/04/04 05:28:12;;;;;;;7.50;2.80;;;2.70;99.90;;;;;;4978588;28;20187;-76
2023/04/04 05:30:38;;;;;;;5.10;2.80;;;3.90;99.90;;;;;;4979408;28;20209;-77
2023/04/04 05:33:04;;;;;;;6.90;2.60;;;4.90;99.90;;;;;;4977616;28;20221;-76
2023/04/04 05:35:30;;;;;;;5.87;2.33;;;5.30;99.90;;;;;;4987017;28;20213;-77
2023/04/04 05:37:55;;;;;;;5.50;3.23;;;5.80;99.90;;;;;;4966450;28;20226;-77
2023/04/04 05:40:21;;;;;;;5.60;2.77;;;6.30;99.90;;;;;;4975162;28;20643;-76
2023/04/04 05:42:57;;;;;;;8.43;3.20;;;7.20;99.90;;;;;;4972499;28;20222;-77
2023/04/04 05:45:23;;;;;;;5.23;2.77;;;7.70;99.90;;;;;;4968298;28;20206;-77
2023/04/04 05:47:49;;;;;;;7.03;2.87;;;8.60;99.90;;;;;;4967395;28;20297;-78
2023/04/04 05:50:15;;;;;;;4.93;2.57;;;8.80;99.90;;;;;;4973119;28;20659;-76
2023/04/04 05:52:41;;;;;;;6.43;2.97;;;8.70;99.90;;;;;;4974203;28;20229;-76
2023/04/04 05:55:06;;;;;;;6.45;2.60;;;9.00;99.90;;;;;;4968567;28;20182;-77
2023/04/04 05:57:32;;;;;;;6.93;2.88;;;8.80;99.90;;;;;;4991414;28;20248;-77
2023/04/04 05:59:58;;;;;;;6.80;2.80;;;9.20;99.90;;;;;;4975048;28;20214;-76
2023/04/04 06:02:24;;;;;;;5.93;3.75;;;9.80;99.90;;;;;;4979313;28;20212;-77
2023/04/04 06:04:49;;;;;;;8.43;3.50;;;10.50;99.90;;;;;;4969929;28;20210;-77
2023/04/04 06:07:15;;;;;;;5.07;2.92;;;10.50;99.90;;;;;;4985920;28;20190;-77
2023/04/04 06:09:42;;;;;;;5.03;2.55;;;10.90;99.90;;;;;;4963608;28;20179;-77
2023/04/04 06:12:08;;;;;;;6.85;3.40;;;10.70;99.90;;;;;;4989062;28;20237;-78
2023/04/04 06:14:37;;;;;;;5.85;3.38;;;10.80;99.90;;;;;;4972458;28;20681;-77
2023/04/04 06:17:04;;;;;;;7.47;3.08;;;10.80;99.90;;;;;;4968553;28;20309;-78
2023/04/04 06:19:30;;;;;;;8.60;3.13;;;10.60;99.90;;;;;;4967270;28;20205;-78
2023/04/04 06:21:55;;;;;;;8.20;2.92;;;11.10;99.90;;;;;;4971245;28;20657;-77
2023/04/04 06:24:21;;;;;;;5.55;3.03;;;11.40;99.90;;;;;;4979390;28;20276;-76
2023/04/04 06:26:50;;;;;;;8.45;3.63;;;11.20;99.90;;;;;;4973610;28;20199;-78
2023/04/04 06:29:17;;;;;;;7.50;3.38;;;11.80;99.90;;;;;;4972916;28;20265;-80
2023/04/04 06:31:43;;;;;;;7.88;3.55;;;12.10;99.90;;;;;;4972623;28;20210;-77
2023/04/04 06:34:08;;;;;;;6.32;2.90;;;12.90;99.90;;;;;;4974167;28;20551;-78
2023/04/04 06:36:34;;;;;;;7.65;2.88;;;12.70;99.90;;;;;;4971188;28;20260;-79
2023/04/04 06:39:00;;;;;;;8.80;3.22;;;13.10;99.90;;;;;;4977813;28;20736;-77
2023/04/04 06:41:26;;;;;;;6.95;3.42;;;13.20;99.90;;;;;;4970294;28;20774;-78
2023/04/04 06:43:51;;;;;;;5.38;2.70;;;13.00;99.90;;;;;;4973679;28;20230;-78
2023/04/04 06:46:17;;;;;;;7.57;2.47;;;12.50;99.90;;;;;;4973029;28;20233;-79
2023/04/04 06:48:43;;;;;;;3.47;2.33;;;13.20;99.90;;;;;;4973864;28;20171;-78
2023/04/04 06:51:10;;;;;;;6.13;2.63;;;12.40;99.90;;;;;;4969263;28;20693;-78
2023/04/04 06:53:36;;;;;;;6.80;2.60;;;12.70;99.90;;;;;;4974846;28;20241;-78
2023/04/04 06:56:02;;;;;;;6.07;2.90;;;12.90;99.90;;;;;;4983199;28;20225;-78
2023/04/04 06:58:27;;;;;;;5.97;2.60;;;13.80;99.90;;;;;;4976498;28;20170;-79
2023/04/04 07:00:55;;;;;;;5.50;2.28;;;14.80;99.90;;;;;;4974217;28;20224;-77
2023/04/04 07:03:22;;;;;;;4.93;2.50;;;13.90;99.90;;;;;;4974782;28;20697;-78
2023/04/04 07:05:48;;;;;;;6.60;2.90;;;13.70;99.90;;;;;;4974776;28;20236;-79
2023/04/04 07:08:13;;;;;;;8.38;3.53;;;13.70;99.90;;;;;;4982056;28;21031;-77
2023/04/04 07:10:39;;;;;;;6.15;3.13;;;13.80;99.90;;;;;;4973054;28;20212;-78
2023/04/04 07:13:04;;;;;;;9.05;2.90;;;14.50;99.90;;;;;;4987932;28;20194;-79
2023/04/04 07:15:30;;;;;;;7.30;3.00;;;13.70;99.90;;;;;;4992344;28;20235;-78
2023/04/04 07:17:56;;;;;;;4.97;2.08;;;14.50;99.90;;;;;;4975756;28;20721;-76
2023/04/04 07:20:22;;;;;;;4.55;2.03;;;14.70;99.80;;;;;;4977084;28;20209;-78
2023/04/04 07:22:48;;;;;;;3.15;2.10;;;14.70;99.50;;;;;;4974092;28;20276;-77
2023/04/04 07:25:14;;;;;;;4.55;1.90;;;14.90;98.70;;;;;;4973119;28;20194;-78
2023/04/04 07:27:39;;;;;;;5.32;2.58;;;15.80;97.10;;;;;;4971723;28;20210;-78
2023/04/04 07:30:07;;;;;;;6.55;2.50;;;14.90;95.60;;;;;;4997929;28;20732;-77
2023/04/04 07:32:32;;;;;;;6.93;2.72;;;14.10;98.50;;;;;;4974401;28;20206;-79
2023/04/04 07:34:58;;;;;;;5.30;2.67;;;15.10;98.70;;;;;;4978241;28;20217;-77
2023/04/04 07:37:25;;;;;;;6.90;2.60;;;15.40;98.50;;;;;;4974248;28;20206;-79
2023/04/04 07:39:51;;;;;;;3.30;1.50;;;15.00;97.30;;;;;;4973168;28;20182;-78
2023/04/04 07:42:21;;;;;;;2.17;1.20;;;15.10;97.80;;;;;;4986960;28;20644;-78
2023/04/04 07:44:48;;;;;;;5.28;2.03;;;16.50;96.40;;;;;;4979523;28;20210;-76
2023/04/04 07:47:15;;;;;;;4.07;2.00;;;17.10;95.50;;;;;;4972287;28;20535;-78
2023/04/04 07:49:41;;;;;;;5.45;2.10;;;15.60;95.20;;;;;;4969518;28;20221;-78
2023/04/04 07:52:07;;;;;;;3.42;1.67;;;14.90;95.90;;;;;;4973254;28;20281;-78
2023/04/04 07:54:33;;;;;;;4.75;2.00;;;16.20;95.60;;;;;;4971512;28;20207;-77
2023/04/04 07:56:59;;;;;;;8.38;2.10;;;14.80;96.30;;;;;;4976535;28;20218;-77
2023/04/04 07:59:25;;;;;;;3.88;1.92;;;14.80;96.50;;;;;;4975457;28;20202;-76
2023/04/04 08:01:50;;;;;;;5.90;1.65;;;14.70;96.60;;;;;;4979106;28;20767;-79
2023/04/04 08:04:16;;;;;;;4.38;1.80;;;14.30;97.00;;;;;;4976329;28;20647;-79
2023/04/04 08:06:42;;;;;;;2.80;1.27;;;12.50;96.70;;;;;;4982664;28;20182;-78
2023/04/04 08:09:08;;;;;;;2.97;1.27;;;11.30;99.50;;;;;;4972428;28;20280;-76
2023/04/04 08:11:34;;;;;;;2.65;1.90;;;10.90;99.90;;;;;;4996911;28;20206;-78
2023/04/04 08:14:00;;;;;;;2.00;1.33;;;11.40;99.90;;;;;;4972094;28;20225;-78
2023/04/04 08:16:25;;;;;;;3.70;1.70;;;11.00;99.90;;;;;;4972179;28;20205;-78
2023/04/04 08:18:51;;;;;;;6.10;1.50;;;10.80;99.90;;;;;;4973797;28;20217;-77
2023/04/04 08:21:18;;;;;;;3.33;1.52;;;10.70;99.90;;;;;;4984138;28;20210;-78
2023/04/04 08:23:43;;;;;;;5.28;1.83;;;10.80;99.90;;;;;;4969527;28;20214;-78
2023/04/04 08:26:10;;;;;;;5.47;1.70;;;11.00;99.90;;;;;;4986061;28;20780;-78
2023/04/04 08:28:37;;;;;;;2.17;1.33;;;11.40;99.90;;;;;;4971586;28;20596;-78
2023/04/04 08:31:03;;;;;;;6.35;1.55;;;11.60;99.90;;;;;;4979889;28;20175;-78
2023/04/04 08:33:29;;;;;;;5.05;1.23;;;11.30;99.90;;;;;;4991272;28;20562;-78
2023/04/04 08:35:57;;;;;;;3.40;1.35;;;11.10;99.90;;;;;;4992170;28;20286;-76
2023/04/04 08:38:22;;;;;;;4.65;1.55;;;10.80;99.90;;;;;;4982858;28;20206;-79
2023/04/04 08:40:48;;;;;;;3.42;1.23;;;11.00;99.90;;;;;;4981173;28;20209;-77
2023/04/04 08:43:18;;;;;;;2.80;1.30;;;11.00;99.90;;;;;;4977251;28;20214;-77
2023/04/04 08:45:45;;;;;;;3.40;1.38;;;11.20;99.90;;;;;;4974801;28;20233;-77
2023/04/04 08:48:12;;;;;;;2.58;1.35;;;11.10;99.90;;;;;;4999258;28;20213;-78
2023/04/04 08:50:41;;;;;;;5.20;1.60;;;10.90;99.90;;;;;;4970030;28;20249;-75
2023/04/04 08:53:09;;;;;;;3.45;1.35;;;10.80;99.90;;;;;;4975266;28;20215;-77
2023/04/04 08:55:35;;;;;;;6.47;1.98;;;11.20;99.90;;;;;;4985172;28;20245;-78
2023/04/04 08:58:00;;;;;;;2.88;1.50;;;11.30;99.90;;;;;;4979164;28;20293;-77
2023/04/04 09:00:26;;;;;;;3.17;1.40;;;10.60;99.90;;;;;;4978102;28;20250;-78
2023/04/04 09:02:58;;;;;;;3.08;1.35;;;10.90;99.90;;;;;;4973099;28;20211;-78
2023/04/04 09:05:24;;;;;;;3.85;1.33;;;10.90;99.90;;;;;;4995607;28;20745;-79
2023/04/04 09:07:51;;;;;;;3.88;1.00;;;10.90;99.90;;;;;;4977430;28;20215;-78
2023/04/04 09:10:16;;;;;;;2.17;0.80;;;11.40;99.50;;;;;;4999447;28;20179;-78
2023/04/04 09:12:46;;;;;;;7.60;1.75;;;11.40;99.50;;;;;;4977971;28;20206;-78
2023/04/04 09:15:12;;;;;;;2.92;1.33;;;11.30;99.60;;;;;;4978434;28;20208;-78
2023/04/04 09:17:38;;;;;;;3.22;1.55;;;10.80;99.90;;;;;;4975989;28;20650;-77
2023/04/04 09:20:37;;;;;;;4.55;1.23;;;10.50;99.90;;;;;;4977949;28;20309;-78
2023/04/04 09:23:06;;;;;;;1.73;0.97;;;10.40;99.90;;;;;;5000403;28;20689;-75
2023/04/04 09:25:33;;;;;;;2.30;0.95;;;10.40;99.90;;;;;;4974719;28;20166;-78
2023/04/04 09:28:01;;;;;;;1.67;1.13;;;10.70;99.30;;;;;;4975631;28;20179;-77
2023/04/04 09:30:27;;;;;;;2.72;1.40;;;10.80;99.90;;;;;;4997792;28;20662;-78
2023/04/04 09:32:53;;;;;;;5.27;1.63;;;10.20;98.20;;;;;;4974759;28;20215;-78
2023/04/04 09:35:19;;;;;;;3.13;1.20;;;10.00;99.50;;;;;;4980734;28;20211;-78
2023/04/04 09:37:45;;;;;;;6.33;1.30;;;9.90;99.50;;;;;;4974525;28;20222;-77
2023/04/04 09:40:13;;;;;;;3.53;1.50;;;9.90;99.90;;;;;;4975079;28;20206;-77
2023/04/04 09:42:39;;;;;;;2.20;1.13;;;10.40;99.90;;;;;;4973114;28;20225;-78
2023/04/04 09:45:06;;;;;;;3.83;1.10;;;10.60;99.90;;;;;;4989427;28;20246;-78
2023/04/04 09:47:32;;;;;;;2.53;2.10;;;11.00;99.90;;;;;;4980247;28;20592;-78
2023/04/04 09:49:59;;;;;;;3.72;1.20;;;11.50;99.90;;;;;;4977050;28;20265;-77
2023/04/04 09:52:25;;;;;;;4.72;1.40;;;11.10;99.50;;;;;;4996077;28;20201;-78
2023/04/04 09:54:58;;;;;;;2.97;1.27;;;10.40;99.60;;;;;;4974603;28;20186;-77
2023/04/04 09:57:32;;;;;;;2.70;0.90;;;10.40;99.90;;;;;;4981022;28;20222;-76
2023/04/04 09:59:59;;;;;;;2.00;1.10;;;10.30;99.90;;;;;;4980831;28;20289;-76
2023/04/04 10:02:29;;;;;;;2.73;1.10;;;9.40;99.90;;;;;;4974996;28;20214;-77
2023/04/04 10:04:56;;;;;;;1.40;1.03;;;9.20;99.90;;;;;;4973924;28;20206;-76
2023/04/04 10:07:25;;;;;;;2.33;1.03;;;9.30;99.90;;;;;;4975927;28;20559;-76
2023/04/04 10:09:51;;;;;;;3.73;1.30;;;9.30;99.90;;;;;;4978934;28;20183;-77
2023/04/04 10:12:22;;;;;;;1.83;1.10;;;9.40;99.90;;;;;;4973898;28;20318;-77
2023/04/04 10:14:54;;;;;;;1.73;1.00;;;9.30;99.90;;;;;;4979968;28;20221;-77
2023/04/04 10:17:21;;;;;;;1.93;0.90;;;9.10;99.90;;;;;;4973879;28;20229;-77
2023/04/04 10:19:47;;;;;;;2.93;1.10;;;8.90;99.90;;;;;;4974880;28;20226;-77
2023/04/04 10:22:15;;;;;;;3.80;1.50;;;8.90;99.90;;;;;;4974961;28;20685;-77
2023/04/04 10:24:40;;;;;;;2.93;1.20;;;8.70;99.90;;;;;;4974722;28;20217;-77
2023/04/04 10:27:06;;;;;;;3.03;1.27;;;8.70;99.90;;;;;;4989564;28;20292;-74
2023/04/04 10:29:32;;;;;;;2.70;0.97;;;9.10;99.90;;;;;;4996973;28;20198;-79
2023/04/04 10:32:08;;;;;;;2.20;1.13;;;9.20;99.90;;;;;;4975503;28;20218;-78
2023/04/04 10:34:52;;;;;;;2.17;0.73;;;9.30;99.90;;;;;;4995555;28;20664;-77
2023/04/04 10:37:30;;;;;;;2.77;0.83;;;9.50;99.90;;;;;;4982755;28;20292;-79
2023/04/04 10:40:06;;;;;;;3.00;1.23;;;9.30;99.90;;;;;;4983468;28;20165;-78
2023/04/04 10:42:38;;;;;;;2.17;1.30;;;9.20;99.90;;;;;;4987932;28;20217;-77
2023/04/04 10:45:09;;;;;;;2.83;1.27;;;9.40;99.90;;;;;;4979843;28;20632;-78
2023/04/04 10:47:35;;;;;;;2.23;0.87;;;9.60;99.50;;;;;;4976113;28;20213;-78
2023/04/04 10:50:06;;;;;;;1.33;0.80;;;9.90;99.00;;;;;;4975974;28;20357;-77
2023/04/04 10:52:32;;;;;;;3.03;1.20;;;9.80;98.60;;;;;;5002227;28;20276;-76
2023/04/04 10:55:02;;;;;;;4.17;0.80;;;9.10;98.90;;;;;;4978264;28;20185;-77
2023/04/04 10:57:29;;;;;;;3.47;1.37;;;8.90;99.30;;;;;;4988655;28;20214;-78
2023/04/04 10:59:55;;;;;;;3.00;0.70;;;8.80;99.90;;;;;;4978237;28;20212;-76
2023/04/04 11:02:44;;;;;;;3.33;1.20;;;9.20;99.90;;;;;;4970734;28;20219;-77
2023/04/04 11:05:14;;;;;;;1.60;1.00;;;9.10;99.90;;;;;;4973404;28;20217;-77
2023/04/04 11:07:40;;;;;;;2.57;1.10;;;9.00;99.90;;;;;;4975613;28;20209;-78
2023/04/04 11:10:20;;;;;;;5.00;1.33;;;9.30;99.90;;;;;;4985247;28;20181;-78
2023/04/04 11:12:51;;;;;;;3.40;1.23;;;9.00;99.90;;;;;;4968368;28;20202;-77
2023/04/04 11:15:20;;;;;;;3.27;1.00;;;9.00;99.90;;;;;;4982219;28;20222;-78
2023/04/04 11:17:58;;;;;;;2.77;1.17;;;9.10;99.50;;;;;;4976003;28;20765;-77
2023/04/04 11:20:34;;;;;;;1.93;0.90;;;9.40;99.00;;;;;;4963991;28;20301;-77
2023/04/04 11:23:13;;;;;;;3.67;0.87;;;9.30;98.00;;;;;;4976775;28;20221;-77
2023/04/04 11:25:55;;;;;;;2.13;0.90;;;9.30;98.00;;;;;;4973515;28;20272;-77
2023/04/04 11:28:32;;;;;;;2.60;1.00;;;9.10;96.90;;;;;;4971031;28;20178;-77
2023/04/04 11:31:19;;;;;;;2.57;0.90;;;9.30;97.80;;;;;;4972201;28;20552;-78
2023/04/04 11:33:55;;;;;;;2.60;0.97;;;9.30;97.50;;;;;;4969907;28;20221;-78
2023/04/04 11:36:44;;;;;;;2.07;0.70;;;9.50;96.80;;;;;;4977934;28;20364;-78
2023/04/04 11:39:30;;;;;;;2.77;1.13;;;9.70;97.20;;;;;;4975493;28;20230;-75
2023/04/04 11:42:07;;;;;;;3.27;1.07;;;9.80;97.40;;;;;;4980138;28;20205;-77
2023/04/04 11:44:38;;;;;;;2.53;1.07;;;9.70;97.10;;;;;;4981177;28;20217;-77
2023/04/04 11:47:10;;;;;;;4.23;1.10;;;9.40;96.80;;;;;;4978752;28;20260;-78
2023/04/04 11:49:41;;;;;;;2.50;0.93;;;9.50;97.60;;;;;;4983151;28;20705;-78
2023/04/04 11:52:17;;;;;;;3.43;1.07;;;9.90;97.70;;;;;;4986982;28;20201;-77
2023/04/04 11:54:45;;;;;;;4.30;1.50;;;9.90;96.60;;;;;;4976935;28;20224;-77
2023/04/04 11:57:15;;;;;;;1.77;1.20;;;9.90;96.90;;;;;;4980839;28;20229;-75
2023/04/04 11:59:45;;;;;;;4.53;1.27;;;10.10;98.70;;;;;;4987643;28;20206;-77
2023/04/04 12:02:14;;;;;;;2.07;0.80;;;9.90;98.10;;;;;;4973114;28;20214;-75
2023/04/04 12:04:43;;;;;;;0.77;0.77;;;10.10;98.10;;;;;;4982003;28;20286;-77
2023/04/04 12:07:09;;;;;;;1.97;1.03;;;9.90;97.70;;;;;;4974056;28;20621;-77
2023/04/04 12:09:35;;;;;;;3.13;1.00;;;9.60;98.00;;;;;;4975336;28;20298;-76
2023/04/04 12:12:02;;;;;;;1.67;1.03;;;9.70;98.20;;;;;;4980912;28;20778;-78
2023/04/04 12:14:28;;;;;;;2.00;1.10;;;9.50;97.40;;;;;;4976042;28;20592;-78
2023/04/04 12:16:56;;;;;;;3.73;1.20;;;9.80;97.80;;;;;;4975352;28;20309;-77
2023/04/04 12:19:22;;;;;;;2.60;0.80;;;9.90;98.10;;;;;;4975800;28;20186;-78
2023/04/04 12:21:49;;;;;;;2.57;1.00;;;9.80;97.60;;;;;;4976253;28;20186;-78
2023/04/04 12:24:15;;;;;;;4.23;1.20;;;9.80;97.80;;;;;;4975530;28;20230;-78
2023/04/04 12:26:44;;;;;;;4.00;1.07;;;9.80;98.20;;;;;;4974317;28;20633;-78
2023/04/04 12:29:11;;;;;;;3.57;1.13;;;10.10;98.50;;;;;;4975624;28;20220;-79
2023/04/04 12:31:40;;;;;;;2.73;1.00;;;10.10;98.20;;;;;;4978453;28;20217;-78
2023/04/04 12:34:05;;;;;;;4.37;1.43;;;10.30;97.40;;;;;;4973855;28;20269;-78
2023/04/04 12:36:34;;;;;;;1.43;1.00;;;10.30;97.10;;;;;;4976459;28;20693;-78
2023/04/04 12:39:05;;;;;;;4.23;1.40;;;10.50;97.20;;;;;;4975755;28;20246;-78
2023/04/04 12:41:32;;;;;;;2.17;1.17;;;10.20;96.00;;;;;;4989786;28;20210;-78
2023/04/04 12:44:08;;;;;;;1.13;0.87;;;10.10;95.90;;;;;;4975476;28;20232;-78
2023/04/04 12:46:38;;;;;;;6.80;2.67;;;10.30;95.50;;;;;;4989769;28;20189;-78
2023/04/04 12:49:06;;;;;;;2.73;1.17;;;10.40;95.80;;;;;;4976089;28;20182;-77
2023/04/04 12:51:34;;;;;;;3.77;1.47;;;9.90;96.00;;;;;;4975913;28;20218;-78
2023/04/04 12:54:00;;;;;;;3.43;1.20;;;9.40;97.00;;;;;;4975475;28;20704;-78